Time;durP1;ratioP1;P1;durP2;ratioP2;P2;SDS_P1;SDS_P2;PMS_P1;PMS_P2;Temp;Humidity;BMP_temperature;BMP_pressure;BME280_temperature;BME280_humidity;BME280_pressure;Samples;Min_cycle;Max_cycle;Signal;HPM_P1;HPM_P2
2022/09/03 00:00:03;;;;;;;3.83;2.38;;;25.30;48.20;;;;;;4881639;28;87906;-84
2022/09/03 00:02:37;;;;;;;3.75;2.47;;;25.30;48.20;;;;;;4906229;28;87254;-85
2022/09/03 00:05:28;;;;;;;3.80;2.22;;;25.30;48.20;;;;;;4891622;28;87594;-84
2022/09/03 00:08:15;;;;;;;3.70;2.30;;;25.30;48.20;;;;;;4908337;28;94574;-84
2022/09/03 00:11:01;;;;;;;2.85;2.08;;;25.30;48.30;;;;;;4890782;28;92718;-84
2022/09/03 00:13:43;;;;;;;2.42;2.22;;;25.30;48.30;;;;;;4875510;28;87055;-84
2022/09/03 00:16:14;;;;;;;3.20;2.15;;;25.30;48.40;;;;;;4875712;28;90915;-84
2022/09/03 00:18:49;;;;;;;3.10;1.92;;;25.30;48.50;;;;;;4889761;28;89104;-84
2022/09/03 00:21:32;;;;;;;2.47;1.90;;;25.30;48.50;;;;;;4890202;28;88715;-84
2022/09/03 00:24:02;;;;;;;2.53;1.90;;;25.30;48.50;;;;;;4889304;28;87540;-84
2022/09/03 00:26:32;;;;;;;2.65;2.22;;;25.30;48.30;;;;;;4890905;28;87450;-84
2022/09/03 00:29:20;;;;;;;2.75;2.00;;;25.30;48.40;;;;;;4891461;28;88620;-84
2022/09/03 00:31:50;;;;;;;2.58;1.98;;;25.30;48.40;;;;;;4891023;28;92551;-84
2022/09/03 00:34:26;;;;;;;3.38;2.50;;;25.30;48.50;;;;;;4903598;28;87488;-84
2022/09/03 00:36:52;;;;;;;2.40;2.13;;;25.20;48.50;;;;;;4917582;28;88341;-84
2022/09/03 00:39:21;;;;;;;2.75;2.42;;;25.20;48.50;;;;;;4920570;28;88519;-84
2022/09/03 00:42:06;;;;;;;2.97;2.30;;;25.30;48.50;;;;;;4931075;28;88337;-84
2022/09/03 00:45:06;;;;;;;3.45;2.08;;;25.20;48.40;;;;;;4962440;28;87981;-84
2022/09/03 00:47:59;;;;;;;2.28;1.80;;;25.20;48.50;;;;;;4930379;28;87029;-84
2022/09/03 00:50:37;;;;;;;3.42;2.45;;;25.20;48.50;;;;;;4931080;28;88733;-84
2022/09/03 00:53:30;;;;;;;2.45;2.05;;;25.20;48.40;;;;;;4932878;28;87041;-84
2022/09/03 00:56:23;;;;;;;2.22;1.95;;;25.20;48.40;;;;;;4930730;28;87189;-84
2022/09/03 00:59:11;;;;;;;2.90;2.47;;;25.20;48.50;;;;;;4948387;28;90863;-84
2022/09/03 01:01:54;;;;;;;2.65;2.10;;;25.20;48.50;;;;;;4929414;28;88491;-84
2022/09/03 01:04:38;;;;;;;3.67;2.20;;;25.20;48.50;;;;;;4962815;28;91412;-84
2022/09/03 01:07:29;;;;;;;2.15;1.83;;;25.20;48.50;;;;;;4948111;28;87173;-85
2022/09/03 01:10:14;;;;;;;2.95;2.17;;;25.20;48.40;;;;;;4947104;28;88050;-84
2022/09/03 01:12:54;;;;;;;2.80;2.38;;;25.20;48.40;;;;;;4947957;28;89433;-85
2022/09/03 01:15:30;;;;;;;2.33;2.00;;;25.20;48.50;;;;;;4946041;28;87508;-84
2022/09/03 01:18:00;;;;;;;2.47;2.15;;;25.20;48.50;;;;;;4948064;28;87080;-84
2022/09/03 01:20:50;;;;;;;2.08;1.88;;;25.20;48.50;;;;;;4938001;28;89323;-85
2022/09/03 01:23:57;;;;;;;2.78;2.22;;;25.20;48.50;;;;;;4947698;28;88567;-84
2022/09/03 01:26:37;;;;;;;2.28;1.83;;;25.20;48.40;;;;;;4879285;28;87282;-84
2022/09/03 01:29:06;;;;;;;2.35;2.08;;;25.20;48.50;;;;;;4856602;28;87250;-84
2022/09/03 01:31:45;;;;;;;3.15;2.08;;;25.20;48.40;;;;;;4863995;28;91121;-84
2022/09/03 01:34:27;;;;;;;2.90;2.17;;;25.20;48.40;;;;;;4879111;28;87882;-84
2022/09/03 01:37:06;;;;;;;2.15;1.80;;;25.20;48.50;;;;;;4870581;28;88131;-84
2022/09/03 01:39:50;;;;;;;1.92;1.73;;;25.20;48.50;;;;;;4870346;28;88894;-85
2022/09/03 01:42:41;;;;;;;4.13;2.30;;;25.20;48.40;;;;;;4871201;28;87668;-85
2022/09/03 01:45:11;;;;;;;1.88;1.65;;;25.20;48.60;;;;;;4869872;28;88652;-84
2022/09/03 01:47:50;;;;;;;2.72;1.80;;;25.20;48.60;;;;;;4871047;28;87672;-84
2022/09/03 01:50:44;;;;;;;2.53;2.17;;;25.20;48.50;;;;;;4855621;28;87116;-85
2022/09/03 01:53:18;;;;;;;2.70;2.35;;;25.20;48.50;;;;;;4870459;28;87692;-85
2022/09/03 01:56:04;;;;;;;2.85;1.90;;;25.20;48.50;;;;;;4871467;28;93132;-84
2022/09/03 01:59:01;;;;;;;3.90;1.98;;;25.20;48.80;;;;;;4870359;28;88303;-84
2022/09/03 02:01:35;;;;;;;2.53;2.17;;;25.10;48.30;;;;;;4841377;29;87153;-84
2022/09/03 02:04:12;;;;;;;2.03;1.80;;;25.10;48.50;;;;;;4890476;28;87565;-84
2022/09/03 02:06:38;;;;;;;2.50;2.15;;;25.10;48.30;;;;;;4907989;28;90111;-84
2022/09/03 02:09:04;;;;;;;2.80;1.92;;;25.10;49.00;;;;;;4908142;28;89084;-84
2022/09/03 02:11:29;;;;;;;2.25;1.92;;;25.10;48.30;;;;;;4907638;28;87341;-85
2022/09/03 02:13:58;;;;;;;2.22;1.83;;;25.20;48.20;;;;;;4908580;28;87688;-85
2022/09/03 02:16:29;;;;;;;2.15;1.80;;;25.10;48.30;;;;;;4923590;28;91718;-85
2022/09/03 02:18:58;;;;;;;1.83;1.67;;;25.10;48.30;;;;;;4907919;28;88207;-84
2022/09/03 02:21:29;;;;;;;2.17;1.70;;;25.10;48.30;;;;;;4908355;28;86955;-84
2022/09/03 02:23:55;;;;;;;1.92;1.73;;;25.10;48.20;;;;;;4906780;28;86958;-84
2022/09/03 02:26:23;;;;;;;1.63;1.52;;;25.10;48.30;;;;;;4907681;28;89537;-84
2022/09/03 02:28:50;;;;;;;3.15;1.90;;;25.10;48.30;;;;;;4907526;28;88320;-84
2022/09/03 02:31:16;;;;;;;3.42;2.20;;;25.10;48.30;;;;;;4907433;28;88368;-84
2022/09/03 02:33:45;;;;;;;3.20;1.90;;;25.10;48.30;;;;;;4906482;28;87445;-85
2022/09/03 02:36:13;;;;;;;1.75;1.65;;;25.10;48.30;;;;;;4906299;28;89240;-84
2022/09/03 02:38:43;;;;;;;2.10;1.90;;;25.10;48.40;;;;;;4920148;28;88016;-84
2022/09/03 02:41:12;;;;;;;3.03;1.95;;;25.10;48.30;;;;;;4929664;28;87248;-84
2022/09/03 02:43:52;;;;;;;2.40;2.08;;;25.10;48.30;;;;;;4930215;28;88151;-84
2022/09/03 02:46:26;;;;;;;1.60;1.50;;;25.10;48.40;;;;;;4930480;28;88207;-84
2022/09/03 02:48:52;;;;;;;2.40;1.80;;;25.10;48.60;;;;;;4928157;28;88420;-84
2022/09/03 02:51:18;;;;;;;1.73;1.63;;;25.10;48.40;;;;;;4929646;28;87341;-84
2022/09/03 02:53:44;;;;;;;2.45;1.92;;;25.10;48.60;;;;;;4928506;28;87624;-84
2022/09/03 02:56:10;;;;;;;1.98;1.77;;;25.10;48.50;;;;;;4928680;28;88405;-84
2022/09/03 02:58:36;;;;;;;2.38;1.90;;;25.10;48.50;;;;;;4928747;28;88500;-84
2022/09/03 03:01:02;;;;;;;2.20;2.00;;;25.10;48.60;;;;;;4929729;28;87468;-84
2022/09/03 03:03:28;;;;;;;1.60;1.50;;;25.10;48.70;;;;;;4928988;28;87083;-84
2022/09/03 03:05:57;;;;;;;1.85;1.75;;;25.10;48.60;;;;;;4927199;28;87416;-84
2022/09/03 03:08:26;;;;;;;2.13;1.92;;;25.10;48.60;;;;;;4928492;28;87652;-84
2022/09/03 03:10:55;;;;;;;1.67;1.50;;;25.10;48.80;;;;;;4930884;28;87043;-84
2022/09/03 03:13:21;;;;;;;2.15;1.65;;;25.10;48.70;;;;;;4929535;28;86833;-84
2022/09/03 03:15:47;;;;;;;2.13;1.90;;;25.10;48.70;;;;;;4932443;28;88127;-84
2022/09/03 03:18:16;;;;;;;1.77;1.67;;;25.10;48.70;;;;;;4965615;28;88743;-84
2022/09/03 03:20:42;;;;;;;2.27;1.70;;;25.00;48.70;;;;;;4932128;28;88571;-84
2022/09/03 03:23:09;;;;;;;2.22;1.70;;;25.00;48.80;;;;;;4934711;28;87416;-84
2022/09/03 03:25:36;;;;;;;2.28;1.73;;;25.10;48.80;;;;;;4931115;28;91196;-84
2022/09/03 03:28:03;;;;;;;1.90;1.70;;;25.00;48.80;;;;;;4932886;28;88308;-84
2022/09/03 03:30:30;;;;;;;2.33;1.67;;;25.00;48.70;;;;;;4931112;28;87210;-84
2022/09/03 03:32:57;;;;;;;2.40;1.83;;;25.10;48.80;;;;;;4954102;28;90505;-85
2022/09/03 03:35:23;;;;;;;2.45;1.98;;;25.00;48.80;;;;;;4932387;28;87743;-84
2022/09/03 03:37:49;;;;;;;2.20;1.63;;;25.00;48.80;;;;;;4932400;28;87822;-84
2022/09/03 03:40:14;;;;;;;1.95;1.63;;;25.00;48.70;;;;;;4932519;28;87320;-84
2022/09/03 03:42:41;;;;;;;1.88;1.73;;;25.00;48.90;;;;;;4931404;28;87585;-84
2022/09/03 03:45:08;;;;;;;2.22;1.70;;;25.00;48.80;;;;;;4932651;28;88448;-84
2022/09/03 03:47:35;;;;;;;1.85;1.52;;;25.00;48.70;;;;;;4932388;28;89177;-84
2022/09/03 03:50:01;;;;;;;1.95;1.75;;;25.00;48.70;;;;;;4932384;28;86987;-84
2022/09/03 03:52:27;;;;;;;2.00;1.63;;;25.00;48.60;;;;;;4933018;28;88263;-84
2022/09/03 03:54:53;;;;;;;2.00;1.73;;;25.00;48.70;;;;;;4931800;28;89012;-84
2022/09/03 03:57:20;;;;;;;1.90;1.60;;;25.00;48.70;;;;;;4932171;28;86994;-84
2022/09/03 03:59:46;;;;;;;1.85;1.40;;;25.00;48.70;;;;;;4930662;28;86928;-84
2022/09/03 04:02:12;;;;;;;2.28;1.60;;;25.00;48.60;;;;;;4932255;28;87143;-84
2022/09/03 04:04:38;;;;;;;1.67;1.48;;;25.00;48.60;;;;;;4931651;28;87147;-84
2022/09/03 04:07:04;;;;;;;1.70;1.30;;;25.00;48.70;;;;;;4932309;28;90886;-84
2022/09/03 04:09:29;;;;;;;1.70;1.45;;;25.00;48.60;;;;;;4933816;28;87774;-84
2022/09/03 04:11:58;;;;;;;2.50;1.73;;;25.00;48.60;;;;;;4931206;28;87424;-84
2022/09/03 04:14:25;;;;;;;1.40;1.30;;;25.00;48.70;;;;;;4930791;28;87468;-84
2022/09/03 04:16:50;;;;;;;1.92;1.70;;;25.00;48.60;;;;;;4932850;28;88299;-84
2022/09/03 04:19:16;;;;;;;1.65;1.45;;;25.00;48.50;;;;;;4932775;28;87499;-84
2022/09/03 04:21:42;;;;;;;1.80;1.50;;;25.00;48.50;;;;;;4931518;28;88109;-84
2022/09/03 04:24:08;;;;;;;2.25;1.73;;;25.00;48.60;;;;;;4932348;28;89072;-84
2022/09/03 04:26:34;;;;;;;1.83;1.63;;;25.00;48.70;;;;;;4931995;28;88281;-84
2022/09/03 04:29:03;;;;;;;1.50;1.40;;;25.00;48.70;;;;;;4931297;28;87940;-84
2022/09/03 04:31:29;;;;;;;1.70;1.60;;;25.00;48.60;;;;;;4933199;28;87200;-84
2022/09/03 04:33:54;;;;;;;1.58;1.48;;;25.00;49.30;;;;;;4930705;28;92475;-84
2022/09/03 04:36:22;;;;;;;2.05;1.52;;;25.00;48.70;;;;;;4933192;28;89300;-84
2022/09/03 04:38:50;;;;;;;2.03;1.77;;;24.90;48.70;;;;;;4930451;28;87019;-84
2022/09/03 04:41:18;;;;;;;1.58;1.48;;;25.00;48.70;;;;;;4931329;28;87498;-83
2022/09/03 04:43:44;;;;;;;1.70;1.60;;;24.90;48.70;;;;;;4930770;28;87399;-84
2022/09/03 04:46:12;;;;;;;1.42;1.33;;;24.90;48.70;;;;;;4931230;28;86996;-84
2022/09/03 04:48:38;;;;;;;1.55;1.27;;;25.00;48.70;;;;;;4930268;28;87032;-84
2022/09/03 04:51:05;;;;;;;1.70;1.60;;;25.00;48.90;;;;;;4929874;28;86862;-84
2022/09/03 04:53:40;;;;;;;1.60;1.40;;;24.90;48.90;;;;;;4931453;28;87644;-84
2022/09/03 04:56:17;;;;;;;1.65;1.50;;;24.90;48.70;;;;;;4933017;28;87400;-84
2022/09/03 04:58:43;;;;;;;1.52;1.42;;;24.90;48.70;;;;;;4930389;28;87853;-84
2022/09/03 05:01:11;;;;;;;1.60;1.50;;;24.90;48.60;;;;;;4932819;28;88012;-85
2022/09/03 05:03:37;;;;;;;1.50;1.40;;;24.90;48.70;;;;;;4931025;28;87560;-84
2022/09/03 05:06:07;;;;;;;1.85;1.40;;;24.90;48.70;;;;;;4930195;28;87151;-84
2022/09/03 05:08:36;;;;;;;1.88;1.60;;;24.90;48.60;;;;;;4961330;28;87606;-84
2022/09/03 05:11:03;;;;;;;1.50;1.40;;;24.90;48.60;;;;;;4963159;28;88975;-84
2022/09/03 05:13:29;;;;;;;1.50;1.40;;;24.90;48.70;;;;;;4929386;28;88542;-84
2022/09/03 05:16:14;;;;;;;1.70;1.48;;;24.90;49.30;;;;;;4932194;28;88405;-84
2022/09/03 05:18:41;;;;;;;1.83;1.40;;;24.90;48.70;;;;;;4930797;28;87168;-84
2022/09/03 05:21:15;;;;;;;1.50;1.40;;;24.90;48.60;;;;;;4930276;28;86939;-84
2022/09/03 05:23:43;;;;;;;1.58;1.45;;;24.90;48.60;;;;;;4930353;28;92720;-84
2022/09/03 05:26:17;;;;;;;1.98;1.67;;;24.90;48.60;;;;;;4930950;28;88321;-84
2022/09/03 05:28:44;;;;;;;1.70;1.35;;;24.90;48.60;;;;;;4930559;28;87524;-85
2022/09/03 05:31:15;;;;;;;1.55;1.45;;;24.90;48.70;;;;;;4930940;28;86919;-85
2022/09/03 05:33:46;;;;;;;2.08;1.40;;;24.90;48.50;;;;;;4929337;28;88695;-85
2022/09/03 05:36:14;;;;;;;1.67;1.50;;;24.90;48.60;;;;;;4929258;28;88242;-86
2022/09/03 05:38:41;;;;;;;1.92;1.73;;;24.90;48.60;;;;;;4931259;28;87201;-85
2022/09/03 05:41:08;;;;;;;3.10;1.30;;;24.90;48.50;;;;;;4932160;28;87169;-85
2022/09/03 05:43:35;;;;;;;1.95;1.55;;;24.90;48.50;;;;;;4930203;28;89315;-85
2022/09/03 05:46:03;;;;;;;1.42;1.33;;;24.90;48.60;;;;;;4929653;28;87009;-85
2022/09/03 05:48:30;;;;;;;1.27;1.10;;;24.90;48.70;;;;;;4930730;28;88535;-85
2022/09/03 05:51:11;;;;;;;2.33;1.30;;;24.90;48.70;;;;;;4962336;28;87366;-85
2022/09/03 05:53:38;;;;;;;2.03;1.60;;;24.90;48.80;;;;;;4945123;28;90908;-85
2022/09/03 05:56:10;;;;;;;1.33;1.23;;;24.90;48.70;;;;;;4933259;28;88778;-85
2022/09/03 05:58:39;;;;;;;1.77;1.40;;;24.90;48.70;;;;;;4931416;28;87400;-85
2022/09/03 06:01:21;;;;;;;2.05;1.42;;;24.90;48.50;;;;;;4930619;28;87530;-83
2022/09/03 06:04:01;;;;;;;4.00;1.70;;;24.90;48.10;;;;;;4924332;28;88877;-81
2022/09/03 06:06:29;;;;;;;8.77;1.77;;;25.00;46.20;;;;;;4925241;28;89030;-81
2022/09/03 06:08:57;;;;;;;11.23;1.85;;;25.10;45.70;;;;;;4927160;28;87156;-84
2022/09/03 06:11:28;;;;;;;8.95;1.92;;;25.00;45.10;;;;;;4929848;28;87366;-86
2022/09/03 06:14:01;;;;;;;14.00;2.15;;;25.10;45.90;;;;;;4929787;28;88765;-83
2022/09/03 06:16:28;;;;;;;10.88;2.25;;;25.00;46.00;;;;;;4928856;28;88937;-83
2022/09/03 06:18:55;;;;;;;9.50;2.05;;;25.00;46.50;;;;;;4927783;28;87447;-84
2022/09/03 06:21:20;;;;;;;3.63;1.70;;;25.00;46.70;;;;;;4959489;28;88950;-83
2022/09/03 06:23:55;;;;;;;15.70;2.05;;;25.00;46.60;;;;;;4928330;28;87625;-83
2022/09/03 06:26:22;;;;;;;5.28;1.90;;;25.00;46.80;;;;;;4926224;28;91409;-84
2022/09/03 06:28:48;;;;;;;8.70;1.90;;;25.00;46.60;;;;;;4930609;28;87368;-81
2022/09/03 06:31:16;;;;;;;8.07;1.80;;;25.00;46.60;;;;;;4937744;28;90364;-82
2022/09/03 06:33:42;;;;;;;8.60;2.30;;;25.00;47.00;;;;;;4927039;28;88689;-82
2022/09/03 06:36:13;;;;;;;7.85;1.70;;;25.00;47.30;;;;;;4925769;28;87626;-83
2022/09/03 06:38:39;;;;;;;9.20;2.25;;;25.00;47.30;;;;;;4920167;28;88467;-86
2022/09/03 06:41:09;;;;;;;8.00;2.25;;;25.10;46.00;;;;;;4919467;28;87324;-88
2022/09/03 06:43:37;;;;;;;9.35;2.20;;;25.10;45.50;;;;;;4923328;28;87666;-86
2022/09/03 06:46:12;;;;;;;32.85;7.05;;;25.10;46.50;;;;;;4922547;28;87150;-88
2022/09/03 06:48:39;;;;;;;55.10;11.63;;;25.10;45.60;;;;;;4924723;28;87438;-88
2022/09/03 06:51:07;;;;;;;50.10;9.63;;;25.20;45.80;;;;;;4928753;28;87538;-89
2022/09/03 06:53:39;;;;;;;51.37;10.53;;;25.10;45.60;;;;;;4926587;28;90170;-85
2022/09/03 06:56:07;;;;;;;43.55;7.93;;;25.10;44.60;;;;;;4926893;28;87340;-87
2022/09/03 06:58:41;;;;;;;46.20;9.43;;;25.20;43.80;;;;;;4927775;28;87173;-87
2022/09/03 07:01:08;;;;;;;31.13;6.40;;;25.20;44.80;;;;;;4927671;28;87280;-88
2022/09/03 07:03:35;;;;;;;25.60;5.75;;;25.20;43.90;;;;;;4929642;28;90935;-88
2022/09/03 07:06:04;;;;;;;29.48;5.90;;;25.20;43.50;;;;;;4929053;28;89262;-87
2022/09/03 07:08:31;;;;;;;30.63;5.97;;;25.20;44.10;;;;;;4929747;28;87517;-87
2022/09/03 07:11:08;;;;;;;36.55;5.53;;;25.20;43.40;;;;;;4928688;28;87665;-87
2022/09/03 07:13:35;;;;;;;30.17;5.97;;;25.10;43.80;;;;;;4928338;28;89728;-87
2022/09/03 07:16:12;;;;;;;30.40;5.72;;;25.20;43.00;;;;;;4960805;28;89871;-87
2022/09/03 07:18:38;;;;;;;23.75;4.82;;;25.20;43.60;;;;;;4928398;28;87008;-86
2022/09/03 07:21:07;;;;;;;25.27;4.38;;;25.30;43.10;;;;;;4926903;28;88998;-88
2022/09/03 07:23:35;;;;;;;18.92;3.80;;;25.30;43.40;;;;;;4925885;28;88067;-87
2022/09/03 07:26:04;;;;;;;20.45;4.10;;;25.40;43.40;;;;;;4929183;28;88913;-88
2022/09/03 07:28:31;;;;;;;;;;;25.30;42.70;;;;;;4928058;28;90111;-87
2022/09/03 07:31:02;;;;;;;18.40;4.03;;;25.30;42.90;;;;;;4960497;28;90538;-86
2022/09/03 07:33:30;;;;;;;16.00;4.07;;;25.30;43.20;;;;;;4877090;28;88092;-89
2022/09/03 07:35:55;;;;;;;13.95;3.55;;;25.30;43.20;;;;;;4942882;28;89795;-85
2022/09/03 07:38:23;;;;;;;15.35;3.03;;;25.30;43.20;;;;;;4933174;28;87935;-86
2022/09/03 07:40:56;;;;;;;9.75;3.05;;;25.30;43.00;;;;;;4929988;28;89571;-86
2022/09/03 07:43:22;;;;;;;19.15;3.35;;;25.30;42.90;;;;;;4929593;28;89103;-88
2022/09/03 07:45:50;;;;;;;24.20;3.63;;;25.40;43.00;;;;;;4932071;28;88206;-87
2022/09/03 07:48:16;;;;;;;17.70;3.43;;;25.40;43.60;;;;;;4930224;28;86881;-85
2022/09/03 07:50:42;;;;;;;14.05;3.47;;;25.50;43.50;;;;;;4928000;28;87916;-87
2022/09/03 07:53:08;;;;;;;14.40;2.80;;;25.40;44.20;;;;;;4930929;28;88593;-86
2022/09/03 07:55:33;;;;;;;6.43;2.70;;;25.50;43.10;;;;;;4927585;28;88268;-85
2022/09/03 07:57:59;;;;;;;11.13;3.25;;;25.50;43.30;;;;;;4932084;28;87854;-86
2022/09/03 08:00:25;;;;;;;10.13;2.92;;;25.40;42.60;;;;;;4926354;28;86926;-86
2022/09/03 08:02:51;;;;;;;9.88;2.90;;;25.40;43.10;;;;;;4931402;28;88357;-86
2022/09/03 08:05:20;;;;;;;9.15;3.00;;;25.50;43.30;;;;;;4930797;28;87478;-87
2022/09/03 08:07:46;;;;;;;12.83;3.17;;;25.50;43.70;;;;;;4934568;28;87676;-87
2022/09/03 08:10:12;;;;;;;8.43;2.65;;;25.50;43.90;;;;;;4935624;28;87709;-86
2022/09/03 08:12:38;;;;;;;13.57;2.95;;;25.50;43.30;;;;;;4933330;28;87643;-87
2022/09/03 08:15:04;;;;;;;7.90;2.30;;;25.50;43.50;;;;;;4931107;28;88336;-87
2022/09/03 08:17:29;;;;;;;11.95;2.58;;;25.50;43.40;;;;;;4931447;28;88454;-87
2022/09/03 08:19:57;;;;;;;11.15;3.00;;;25.60;43.80;;;;;;4936799;28;87379;-87
2022/09/03 08:22:24;;;;;;;12.10;2.92;;;25.60;43.50;;;;;;4934537;28;88303;-87
2022/09/03 08:24:50;;;;;;;8.75;2.40;;;25.70;43.70;;;;;;4936361;28;88667;-87
2022/09/03 08:27:15;;;;;;;8.38;2.33;;;25.60;43.80;;;;;;4935064;28;87870;-89
2022/09/03 08:29:41;;;;;;;4.28;2.45;;;25.70;43.60;;;;;;4934971;28;88207;-89
2022/09/03 08:32:06;;;;;;;9.98;2.60;;;25.70;43.70;;;;;;4936462;28;88809;-90
2022/09/03 08:34:32;;;;;;;15.80;2.78;;;25.70;44.00;;;;;;4939171;28;86898;-89
2022/09/03 08:37:00;;;;;;;7.60;2.42;;;25.70;44.50;;;;;;4966983;28;87023;-89
2022/09/03 08:39:26;;;;;;;15.07;2.47;;;25.70;44.50;;;;;;4937078;28;87171;-90
2022/09/03 08:42:45;;;;;;;8.75;2.60;;;25.70;45.00;;;;;;4934803;28;88368;-88
2022/09/03 08:45:15;;;;;;;13.60;2.45;;;25.70;45.10;;;;;;4910106;28;89965;-89
2022/09/03 08:47:50;;;;;;;9.82;2.40;;;25.70;45.00;;;;;;4922277;28;87835;-88
2022/09/03 08:50:37;;;;;;;6.53;2.40;;;25.70;45.30;;;;;;4922995;28;87807;-88
2022/09/03 08:53:41;;;;;;;10.55;2.33;;;25.70;45.40;;;;;;4924185;28;88800;-88
2022/09/03 08:56:11;;;;;;;10.55;2.55;;;25.70;45.50;;;;;;4922555;28;93996;-87
2022/09/03 08:58:43;;;;;;;7.57;2.78;;;25.80;45.40;;;;;;4923381;28;87273;-88
2022/09/03 09:01:13;;;;;;;9.02;2.00;;;25.90;46.10;;;;;;4920892;28;87165;-88
2022/09/03 09:03:42;;;;;;;6.85;2.75;;;26.00;46.90;;;;;;4903995;28;91605;-87
2022/09/03 09:06:25;;;;;;;8.48;2.42;;;25.90;46.60;;;;;;4920670;28;88353;-87
2022/09/03 09:09:03;;;;;;;3.35;1.80;;;26.00;46.80;;;;;;4921458;28;88417;-87
2022/09/03 09:11:36;;;;;;;5.82;2.10;;;26.00;47.30;;;;;;4920983;28;87611;-88
2022/09/03 09:14:14;;;;;;;4.78;2.30;;;25.90;47.20;;;;;;4922344;28;89242;-88
2022/09/03 09:17:03;;;;;;;5.47;2.30;;;25.90;47.60;;;;;;4920275;28;91160;-88
2022/09/03 09:19:47;;;;;;;10.88;2.17;;;25.90;47.60;;;;;;4921598;28;87056;-86
2022/09/03 09:22:39;;;;;;;7.85;2.35;;;25.90;48.00;;;;;;4920685;28;87537;-83
2022/09/03 09:25:13;;;;;;;9.73;2.58;;;26.00;48.40;;;;;;4930670;28;88522;-82
2022/09/03 09:27:48;;;;;;;5.32;2.10;;;26.00;48.20;;;;;;4930634;28;88159;-83
2022/09/03 09:30:15;;;;;;;7.57;2.38;;;26.00;48.70;;;;;;4931190;28;87347;-84
2022/09/03 09:32:41;;;;;;;10.27;2.50;;;26.00;48.70;;;;;;4934335;28;87391;-85
2022/09/03 09:35:11;;;;;;;5.93;2.20;;;26.10;49.10;;;;;;4967699;28;91839;-83
2022/09/03 09:37:53;;;;;;;7.28;2.10;;;26.10;49.30;;;;;;4931872;28;87935;-84
2022/09/03 09:40:32;;;;;;;4.53;2.35;;;26.20;49.30;;;;;;4934398;28;87595;-84
2022/09/03 09:43:05;;;;;;;5.30;2.00;;;26.10;48.80;;;;;;4931823;28;89669;-84
2022/09/03 09:45:34;;;;;;;3.22;2.30;;;26.20;49.10;;;;;;4931290;28;87387;-85
2022/09/03 09:48:01;;;;;;;9.10;2.28;;;26.10;49.00;;;;;;4934207;28;88560;-84
2022/09/03 09:50:27;;;;;;;9.02;2.60;;;26.10;49.40;;;;;;4930970;28;87518;-86
2022/09/03 09:53:05;;;;;;;8.65;2.35;;;26.20;49.40;;;;;;4934677;28;87477;-84
2022/09/03 09:55:31;;;;;;;9.40;2.40;;;26.10;49.10;;;;;;4934141;28;88602;-85
2022/09/03 09:58:09;;;;;;;6.28;2.22;;;26.20;49.20;;;;;;4935448;28;88031;-85
2022/09/03 10:00:36;;;;;;;13.07;2.53;;;26.30;49.20;;;;;;4962859;28;88309;-84
2022/09/03 10:03:09;;;;;;;18.27;3.40;;;26.20;49.60;;;;;;4932495;28;88469;-86
2022/09/03 10:05:37;;;;;;;11.55;3.25;;;26.10;50.00;;;;;;4933977;28;89141;-85
2022/09/03 10:08:06;;;;;;;30.97;4.37;;;26.30;50.10;;;;;;4935032;28;87544;-85
2022/09/03 10:10:43;;;;;;;24.67;3.97;;;26.30;50.60;;;;;;4935010;28;87579;-85
2022/09/03 10:13:15;;;;;;;19.60;3.47;;;26.30;51.10;;;;;;4936296;28;87428;-86
2022/09/03 10:16:00;;;;;;;26.58;4.32;;;26.30;50.90;;;;;;4933939;28;88254;-85
2022/09/03 10:18:34;;;;;;;12.65;3.63;;;26.20;50.70;;;;;;4934295;28;88040;-85
2022/09/03 10:21:18;;;;;;;13.70;3.63;;;26.30;50.40;;;;;;4935563;28;87264;-85
2022/09/03 10:23:54;;;;;;;21.50;3.70;;;26.30;51.10;;;;;;4932450;28;87587;-85
2022/09/03 10:26:27;;;;;;;16.00;3.40;;;26.30;50.60;;;;;;4932287;28;90210;-83
2022/09/03 10:28:57;;;;;;;17.15;3.63;;;26.20;50.60;;;;;;4932492;28;90900;-84
2022/09/03 10:31:35;;;;;;;13.90;2.85;;;26.20;50.10;;;;;;4930895;28;87354;-86
2022/09/03 10:34:19;;;;;;;8.68;2.85;;;26.20;50.70;;;;;;4932942;28;87132;-85
2022/09/03 10:37:23;;;;;;;11.32;2.95;;;26.20;51.10;;;;;;4928475;28;87711;-83
2022/09/03 10:43:07;;;;;;;11.73;3.30;;;26.20;51.20;;;;;;4925468;28;87668;-84
2022/09/03 10:46:09;;;;;;;9.25;3.20;;;26.20;50.90;;;;;;4915440;28;87404;-84
2022/09/03 10:49:01;;;;;;;8.48;3.33;;;26.10;50.60;;;;;;4923786;28;89545;-84
2022/09/03 10:51:39;;;;;;;10.52;2.88;;;26.10;50.30;;;;;;4923463;28;88441;-83
2022/09/03 10:54:48;;;;;;;10.07;3.70;;;26.10;50.70;;;;;;4925165;28;87865;-83
2022/09/03 10:57:34;;;;;;;8.30;3.05;;;26.10;51.60;;;;;;4923479;28;87440;-84
2022/09/03 11:00:10;;;;;;;9.60;3.60;;;26.10;51.70;;;;;;4924773;28;88597;-84
2022/09/03 11:03:18;;;;;;;12.80;3.60;;;26.10;52.00;;;;;;4923759;28;87818;-83
2022/09/03 11:06:05;;;;;;;12.68;3.67;;;26.10;52.00;;;;;;4921905;28;87338;-84
2022/09/03 11:08:43;;;;;;;11.15;3.30;;;26.10;51.80;;;;;;4921185;28;87403;-84
2022/09/03 11:11:18;;;;;;;9.98;3.05;;;26.10;51.60;;;;;;4923687;28;88962;-84
2022/09/03 11:13:49;;;;;;;10.05;3.50;;;26.10;51.40;;;;;;4923308;28;93125;-81
2022/09/03 11:16:24;;;;;;;15.52;3.78;;;26.10;51.40;;;;;;4919501;28;87333;-81
2022/09/03 11:19:14;;;;;;;18.13;3.50;;;26.10;51.20;;;;;;4920999;28;87654;-81
2022/09/03 11:21:41;;;;;;;12.70;3.63;;;26.10;51.40;;;;;;4921342;28;89540;-81
2022/09/03 11:24:11;;;;;;;8.38;3.20;;;26.10;51.90;;;;;;4923752;28;89212;-81
2022/09/03 11:26:38;;;;;;;11.18;3.08;;;26.10;51.30;;;;;;4920804;28;87362;-81
2022/09/03 11:29:15;;;;;;;13.63;3.42;;;26.10;51.40;;;;;;4919847;28;87554;-81
2022/09/03 11:32:28;;;;;;;8.38;3.10;;;26.10;50.50;;;;;;4920516;28;92918;-81
2022/09/03 11:34:54;;;;;;;9.18;3.55;;;26.10;50.60;;;;;;4893589;28;91626;-81
2022/09/03 11:37:28;;;;;;;5.72;3.17;;;26.10;51.10;;;;;;4895753;28;87338;-82
2022/09/03 11:40:05;;;;;;;7.80;3.22;;;26.10;50.90;;;;;;4894175;28;87134;-82
2022/09/03 11:42:37;;;;;;;12.82;3.35;;;26.10;50.60;;;;;;4899787;28;89040;-82
2022/09/03 11:45:43;;;;;;;6.32;3.22;;;26.10;51.20;;;;;;4909445;28;88933;-81
2022/09/03 11:48:45;;;;;;;8.23;3.28;;;26.10;50.80;;;;;;4905191;28;88632;-81
2022/09/03 11:51:31;;;;;;;9.60;3.38;;;26.10;50.70;;;;;;4857071;28;87511;-81
2022/09/03 11:53:59;;;;;;;7.65;3.10;;;26.10;50.80;;;;;;4859323;29;88801;-82
2022/09/03 11:56:25;;;;;;;7.17;3.17;;;26.10;51.20;;;;;;4859645;28;87372;-81
2022/09/03 11:59:37;;;;;;;11.60;3.60;;;26.10;51.10;;;;;;4836612;29;87607;-81
2022/09/03 12:02:22;;;;;;;7.75;3.85;;;26.10;51.20;;;;;;4784482;29;91127;-82
2022/09/03 12:05:15;;;;;;;8.98;3.53;;;26.20;51.30;;;;;;4760851;29;93279;-82
2022/09/03 12:08:06;;;;;;;10.95;3.83;;;26.20;51.40;;;;;;4785008;29;91550;-81
2022/09/03 12:10:52;;;;;;;9.40;3.95;;;26.30;51.60;;;;;;4784511;29;87221;-82
2022/09/03 12:13:47;;;;;;;9.65;3.80;;;26.40;51.50;;;;;;4803045;29;87617;-83
2022/09/03 12:16:13;;;;;;;7.10;3.42;;;26.40;51.30;;;;;;4802397;29;88282;-83
2022/09/03 12:18:40;;;;;;;7.03;3.10;;;26.50;51.20;;;;;;4802454;29;94365;-82
2022/09/03 12:21:08;;;;;;;12.40;3.90;;;26.50;51.40;;;;;;4804434;29;87666;-82
2022/09/03 12:23:43;;;;;;;6.88;3.50;;;26.50;51.40;;;;;;4804914;29;87282;-83
2022/09/03 12:26:15;;;;;;;12.45;3.53;;;26.50;51.40;;;;;;4804995;29;88438;-82
2022/09/03 12:28:43;;;;;;;6.60;3.10;;;26.50;51.60;;;;;;4865800;28;91381;-82
2022/09/03 12:31:24;;;;;;;4.03;2.85;;;26.60;51.60;;;;;;4867876;28;89948;-82
2022/09/03 12:33:58;;;;;;;11.25;3.35;;;26.60;51.40;;;;;;4921317;28;87427;-81
2022/09/03 12:36:24;;;;;;;6.75;3.72;;;26.70;51.50;;;;;;4926599;28;88278;-82
2022/09/03 12:38:50;;;;;;;7.68;3.60;;;26.70;51.50;;;;;;4926991;28;87410;-82
2022/09/03 12:41:22;;;;;;;6.72;2.78;;;26.80;51.50;;;;;;4930733;28;88523;-81
2022/09/03 12:43:55;;;;;;;8.30;2.90;;;26.70;51.80;;;;;;4927170;28;88052;-85
2022/09/03 12:46:29;;;;;;;6.97;3.38;;;26.70;51.90;;;;;;4927187;28;88257;-85
2022/09/03 12:49:04;;;;;;;8.57;3.35;;;26.60;52.00;;;;;;4925209;28;88382;-85
2022/09/03 12:51:39;;;;;;;6.00;3.45;;;26.70;52.30;;;;;;4928087;28;87958;-85
2022/09/03 12:54:08;;;;;;;8.27;3.65;;;26.60;52.20;;;;;;4926410;28;88373;-85
2022/09/03 12:56:35;;;;;;;6.57;2.97;;;26.60;52.20;;;;;;4923302;28;88246;-85
2022/09/03 12:59:11;;;;;;;7.80;3.45;;;26.70;52.00;;;;;;4926123;28;88992;-83
2022/09/03 13:01:48;;;;;;;7.35;3.30;;;26.70;52.10;;;;;;4924706;28;86914;-86
2022/09/03 13:04:19;;;;;;;11.90;3.25;;;26.70;52.00;;;;;;4923930;28;87468;-85
2022/09/03 13:07:23;;;;;;;6.97;3.50;;;26.80;52.30;;;;;;4926510;28;89421;-84
2022/09/03 13:09:48;;;;;;;12.70;3.25;;;26.80;52.30;;;;;;4912217;28;90036;-86
2022/09/03 13:12:41;;;;;;;15.45;4.10;;;26.80;52.40;;;;;;4913046;28;88032;-86
2022/09/03 13:15:11;;;;;;;10.20;3.47;;;26.70;52.70;;;;;;4916290;28;90016;-85
2022/09/03 13:18:00;;;;;;;13.57;3.70;;;26.70;53.30;;;;;;4912504;28;88190;-85
2022/09/03 13:20:35;;;;;;;10.55;3.35;;;26.80;52.50;;;;;;4917961;28;87914;-85